createdAt,value
2019-05-22T00:02:06.965Z,13.50
2019-05-22T00:04:40.305Z,13.50
2019-05-22T00:07:13.034Z,13.50
2019-05-22T00:09:42.349Z,13.60
2019-05-22T00:12:12.720Z,13.60
2019-05-22T00:14:46.707Z,13.60
2019-05-22T00:17:15.712Z,13.60
2019-05-22T00:19:52.497Z,13.60
2019-05-22T00:22:22.891Z,13.60
2019-05-22T00:24:54.657Z,13.60
2019-05-22T00:27:25.905Z,13.60
2019-05-22T00:29:57.850Z,13.70
2019-05-22T00:32:31.939Z,13.70
2019-05-22T00:35:00.424Z,13.60
2019-05-22T00:37:33.565Z,13.60
2019-05-22T00:40:04.153Z,13.60
2019-05-22T00:42:32.976Z,13.60
2019-05-22T00:45:03.026Z,13.60
2019-05-22T00:48:08.600Z,13.60
2019-05-22T00:50:33.289Z,13.60
2019-05-22T00:53:27.804Z,13.60
2019-05-22T00:56:05.829Z,13.60
2019-05-22T00:58:46.015Z,13.70
2019-05-22T01:01:16.555Z,13.60
2019-05-22T01:03:47.950Z,13.60
2019-05-22T01:06:16.432Z,13.60
2019-05-22T01:08:47.842Z,13.60
2019-05-22T01:11:22.569Z,13.60
2019-05-22T01:13:52.189Z,13.60
2019-05-22T01:16:21.281Z,13.60
2019-05-22T01:18:50.293Z,13.60
2019-05-22T01:21:23.446Z,13.60
2019-05-22T01:23:55.068Z,13.60
2019-05-22T01:26:25.944Z,13.50
2019-05-22T01:28:56.062Z,13.50
2019-05-22T01:31:34.401Z,13.50
2019-05-22T01:34:14.037Z,13.50
2019-05-22T01:36:45.110Z,13.50
2019-05-22T01:39:30.404Z,13.50
2019-05-22T01:41:59.556Z,13.50
2019-05-22T01:44:28.562Z,13.50
2019-05-22T01:47:02.284Z,13.40
2019-05-22T01:49:31.393Z,13.40
2019-05-22T01:51:59.909Z,13.40
2019-05-22T01:54:30.434Z,13.40
2019-05-22T01:57:06.498Z,13.40
2019-05-22T01:59:40.210Z,13.40
2019-05-22T02:05:11.261Z,13.40
2019-05-22T02:07:42.831Z,13.40
2019-05-22T02:10:14.471Z,13.40
2019-05-22T02:12:51.330Z,13.40
2019-05-22T02:15:21.991Z,13.40
2019-05-22T02:17:56.543Z,13.40
2019-05-22T02:20:26.353Z,13.40
2019-05-22T02:23:05.586Z,13.40
2019-05-22T02:25:36.101Z,13.40
2019-05-22T02:28:06.164Z,13.40
2019-05-22T02:30:36.880Z,13.40
2019-05-22T02:33:08.040Z,13.40
2019-05-22T02:35:38.788Z,13.40
2019-05-22T02:38:07.426Z,13.40
2019-05-22T02:40:38.860Z,13.40
2019-05-22T02:43:07.917Z,13.40
2019-05-22T02:45:37.438Z,13.40
2019-05-22T02:48:11.653Z,13.40
2019-05-22T02:50:40.487Z,13.40
2019-05-22T02:53:11.328Z,13.40
2019-05-22T02:55:43.584Z,13.40
2019-05-22T02:58:12.855Z,13.40
2019-05-22T03:00:56.382Z,13.30
2019-05-22T03:03:27.011Z,13.30
2019-05-22T03:05:56.534Z,13.30
2019-05-22T03:08:34.681Z,13.30
2019-05-22T03:11:07.456Z,13.20
2019-05-22T03:13:58.988Z,13.20
2019-05-22T03:16:29.102Z,13.30
2019-05-22T03:19:08.915Z,13.20
2019-05-22T03:24:22.688Z,13.30
2019-05-22T03:27:26.848Z,13.30
2019-05-22T03:33:19.934Z,13.20
2019-05-22T03:36:10.882Z,13.30
2019-05-22T03:39:11.532Z,13.30
2019-05-22T03:41:57.383Z,13.30
2019-05-22T03:44:30.305Z,13.30
2019-05-22T03:46:59.532Z,13.30
2019-05-22T03:49:32.516Z,13.30
2019-05-22T03:52:04.335Z,13.30
2019-05-22T03:54:43.064Z,13.30
2019-05-22T03:57:13.798Z,13.30
2019-05-22T04:02:47.227Z,13.40
2019-05-22T04:05:18.586Z,13.40
2019-05-22T04:07:54.382Z,13.40
2019-05-22T04:10:24.903Z,13.40
2019-05-22T04:12:55.194Z,13.40
2019-05-22T04:15:25.351Z,13.40
2019-05-22T04:17:56.727Z,13.30
2019-05-22T04:20:26.827Z,13.40
2019-05-22T04:22:58.166Z,13.40
2019-05-22T04:25:32.311Z,13.50
2019-05-22T04:28:00.800Z,13.50
2019-05-22T04:30:29.399Z,13.50
2019-05-22T04:32:58.529Z,13.50
2019-05-22T04:35:30.610Z,13.50
2019-05-22T04:37:59.506Z,13.50
2019-05-22T04:40:47.000Z,13.50
2019-05-22T04:43:21.281Z,13.50
2019-05-22T04:45:51.005Z,13.60
2019-05-22T04:48:19.984Z,13.60
2019-05-22T04:50:50.388Z,13.60
2019-05-22T04:53:19.214Z,13.70
2019-05-22T04:56:00.869Z,13.70
2019-05-22T04:58:41.799Z,13.70
2019-05-22T05:01:23.597Z,13.70
2019-05-22T05:03:53.906Z,13.70
2019-05-22T05:06:27.874Z,13.60
2019-05-22T05:08:56.551Z,13.60
2019-05-22T05:11:29.275Z,13.60
2019-05-22T05:13:59.114Z,13.60
2019-05-22T05:16:27.608Z,13.60
2019-05-22T05:18:56.531Z,13.60
2019-05-22T05:21:25.558Z,13.60
2019-05-22T05:23:54.637Z,13.70
2019-05-22T05:26:33.061Z,13.60
2019-05-22T05:29:03.282Z,13.60
2019-05-22T05:31:32.021Z,13.60
2019-05-22T05:34:35.511Z,13.60
2019-05-22T05:37:06.781Z,13.60
2019-05-22T05:39:40.191Z,13.50
2019-05-22T05:42:09.907Z,13.60
2019-05-22T05:44:45.499Z,13.60
2019-05-22T05:47:27.222Z,13.60
2019-05-22T05:50:00.536Z,13.70
2019-05-22T05:52:32.830Z,13.70
2019-05-22T05:55:07.063Z,13.80
2019-05-22T05:57:46.468Z,13.80
2019-05-22T06:00:20.539Z,13.80
2019-05-22T06:02:58.618Z,13.80
2019-05-22T06:05:37.284Z,13.90
2019-05-22T06:08:04.856Z,14.00
2019-05-22T06:10:37.693Z,14.10
2019-05-22T06:13:11.999Z,14.20
2019-05-22T06:15:48.095Z,14.30
2019-05-22T06:18:35.888Z,14.40
2019-05-22T06:21:14.298Z,14.50
2019-05-22T06:24:09.530Z,14.60
2019-05-22T06:26:50.154Z,14.60
2019-05-22T06:29:20.618Z,14.60
2019-05-22T06:32:11.944Z,14.60
2019-05-22T06:34:43.925Z,14.60
2019-05-22T06:37:48.074Z,14.60
2019-05-22T06:40:19.872Z,14.50
2019-05-22T06:43:10.933Z,14.50
2019-05-22T06:45:45.614Z,14.50
2019-05-22T06:48:18.574Z,14.60
2019-05-22T06:50:49.696Z,14.60
2019-05-22T06:53:26.695Z,14.70
2019-05-22T06:56:01.888Z,14.80
2019-05-22T06:58:51.769Z,15.00
2019-05-22T07:01:27.510Z,15.20
2019-05-22T07:04:09.697Z,15.30
2019-05-22T07:06:43.178Z,15.40
2019-05-22T07:09:18.575Z,15.50
2019-05-22T07:11:47.266Z,15.60
2019-05-22T07:14:17.633Z,15.80
2019-05-22T07:16:47.652Z,15.90
2019-05-22T07:19:21.003Z,16.00
2019-05-22T07:22:00.968Z,16.10
2019-05-22T07:24:32.541Z,16.40
2019-05-22T07:27:22.455Z,16.70
2019-05-22T07:29:51.616Z,16.80
2019-05-22T07:32:25.615Z,17.10
2019-05-22T07:34:56.176Z,17.20
2019-05-22T07:37:30.988Z,17.10
2019-05-22T07:40:02.150Z,16.90
2019-05-22T07:42:36.035Z,16.80
2019-05-22T07:45:26.243Z,16.80
2019-05-22T07:48:25.821Z,16.70
2019-05-22T07:54:47.099Z,16.20
2019-05-22T07:57:19.176Z,16.00
2019-05-22T07:59:58.022Z,15.90
2019-05-22T08:02:28.927Z,15.90
2019-05-22T08:05:02.175Z,15.90
2019-05-22T08:07:34.004Z,15.80
2019-05-22T08:10:03.707Z,16.00
2019-05-22T08:12:34.593Z,16.10
2019-05-22T08:15:04.990Z,16.10
2019-05-22T08:17:35.637Z,16.30
2019-05-22T08:20:06.274Z,16.60
2019-05-22T08:22:39.818Z,16.80
2019-05-22T08:25:11.983Z,17.10
2019-05-22T08:27:44.396Z,17.40
2019-05-22T08:30:17.355Z,17.50
2019-05-22T08:32:48.267Z,17.80
2019-05-22T08:35:24.091Z,17.80
2019-05-22T08:38:01.795Z,17.70
2019-05-22T08:40:34.856Z,17.70
2019-05-22T08:43:04.613Z,17.90
2019-05-22T08:45:35.455Z,18.30
2019-05-22T08:48:12.116Z,18.40
2019-05-22T08:50:44.502Z,18.50
2019-05-22T08:53:15.063Z,18.80
2019-05-22T08:55:45.582Z,18.80
2019-05-22T08:58:28.581Z,19.00
2019-05-22T09:01:02.615Z,19.30
2019-05-22T09:03:52.237Z,19.80
2019-05-22T09:06:28.859Z,19.80
2019-05-22T09:09:26.542Z,20.20
2019-05-22T09:11:57.932Z,21.10
2019-05-22T09:14:30.048Z,23.20
2019-05-22T09:17:06.067Z,24.10
2019-05-22T09:19:36.855Z,24.30
2019-05-22T09:22:08.575Z,23.30
2019-05-22T09:24:40.062Z,22.80
2019-05-22T09:27:09.788Z,22.50
2019-05-22T09:29:38.318Z,21.70
2019-05-22T09:32:09.033Z,21.60
2019-05-22T09:34:38.414Z,21.40
2019-05-22T09:37:08.219Z,21.60
2019-05-22T09:39:39.218Z,23.10
2019-05-22T09:42:16.095Z,25.10
2019-05-22T09:44:45.907Z,26.60
2019-05-22T09:47:16.056Z,26.20
2019-05-22T09:49:48.634Z,26.80
2019-05-22T09:52:17.801Z,27.70
2019-05-22T09:54:50.910Z,26.90
2019-05-22T09:57:22.479Z,27.40
2019-05-22T09:59:53.351Z,28.40
2019-05-22T10:02:25.282Z,27.90
2019-05-22T10:05:03.223Z,27.00
2019-05-22T10:07:36.089Z,26.30
2019-05-22T10:10:08.393Z,26.20
2019-05-22T10:12:37.413Z,26.00
2019-05-22T10:15:12.369Z,25.40
2019-05-22T10:17:47.893Z,24.50
2019-05-22T10:20:18.910Z,23.70
2019-05-22T10:22:47.386Z,22.60
2019-05-22T10:25:17.645Z,21.60
2019-05-22T10:27:47.440Z,20.70
2019-05-22T10:30:16.985Z,20.20
2019-05-22T10:32:50.913Z,20.10
2019-05-22T10:35:23.670Z,20.00
2019-05-22T10:37:54.238Z,20.70
2019-05-22T10:40:24.265Z,21.40
2019-05-22T10:42:54.065Z,22.10
2019-05-22T10:45:24.899Z,23.20
2019-05-22T10:47:57.507Z,24.40
2019-05-22T10:50:28.816Z,25.20
2019-05-22T10:53:05.144Z,24.60
2019-05-22T10:55:35.809Z,24.60
2019-05-22T10:58:05.874Z,24.50
2019-05-22T11:00:36.563Z,24.10
2019-05-22T11:03:05.830Z,24.00
2019-05-22T11:05:34.751Z,23.70
2019-05-22T11:08:05.760Z,23.60
2019-05-22T11:10:36.518Z,23.40
2019-05-22T11:13:06.532Z,23.60
2019-05-22T11:15:39.627Z,23.90
2019-05-22T11:18:09.256Z,23.80
2019-05-22T11:20:45.637Z,23.40
2019-05-22T11:23:14.222Z,22.70
2019-05-22T11:25:46.460Z,22.20
2019-05-22T11:28:15.133Z,21.90
2019-05-22T11:30:43.781Z,21.70
2019-05-22T11:33:12.965Z,21.30
2019-05-22T11:35:43.037Z,21.00
2019-05-22T11:38:11.641Z,20.70
2019-05-22T11:40:40.497Z,20.50
2019-05-22T11:43:10.368Z,20.30
2019-05-22T11:45:38.523Z,20.00
2019-05-22T11:48:11.036Z,19.90
2019-05-22T11:50:49.061Z,20.30
2019-05-22T11:53:17.559Z,20.10
2019-05-22T11:55:50.429Z,19.80
2019-05-22T11:58:18.973Z,19.50
2019-05-22T12:00:47.830Z,19.50
2019-05-22T12:03:20.850Z,19.40
2019-05-22T12:05:52.554Z,19.10
2019-05-22T12:08:21.558Z,18.90
2019-05-22T12:10:51.191Z,18.60
2019-05-22T12:13:22.682Z,18.70
2019-05-22T12:15:56.803Z,18.50
2019-05-22T12:18:33.261Z,18.20
2019-05-22T12:21:03.505Z,18.10
2019-05-22T12:23:38.467Z,18.00
2019-05-22T12:26:10.294Z,18.00
2019-05-22T12:29:01.205Z,17.80
2019-05-22T12:31:30.746Z,17.70
2019-05-22T12:33:59.773Z,17.50
2019-05-22T12:36:35.887Z,17.60
2019-05-22T12:47:10.086Z,19.00
2019-05-22T12:49:40.788Z,18.50
2019-05-22T12:52:10.039Z,18.00
2019-05-22T12:54:47.361Z,17.80
2019-05-22T12:57:13.951Z,17.70
2019-05-22T12:59:47.956Z,17.60
2019-05-22T13:02:43.406Z,17.60
2019-05-22T13:05:13.819Z,17.50
2019-05-22T13:07:42.445Z,17.10
2019-05-22T13:10:27.756Z,16.90
2019-05-22T13:12:58.504Z,16.90
2019-05-22T13:15:34.967Z,17.20
2019-05-22T13:18:10.186Z,17.50
2019-05-22T13:20:45.364Z,17.70
2019-05-22T13:23:22.586Z,17.60
2019-05-22T13:25:55.421Z,17.40
2019-05-22T13:28:28.484Z,17.30
2019-05-22T13:31:04.346Z,17.10
2019-05-22T13:33:38.824Z,17.00
2019-05-22T13:36:12.865Z,17.00
2019-05-22T13:38:42.831Z,17.00
2019-05-22T13:41:13.641Z,17.00
2019-05-22T13:43:45.784Z,17.00
2019-05-22T13:46:16.045Z,16.80
2019-05-22T13:48:47.305Z,16.80
2019-05-22T13:51:17.651Z,16.60
2019-05-22T13:53:51.580Z,16.50
2019-05-22T13:56:25.216Z,16.40
2019-05-22T13:58:52.555Z,16.20
2019-05-22T14:01:22.254Z,16.10
2019-05-22T14:03:55.439Z,16.00
2019-05-22T14:06:24.779Z,15.80
2019-05-22T14:08:53.905Z,15.70
2019-05-22T14:11:22.923Z,15.60
2019-05-22T14:14:04.211Z,15.50
2019-05-22T14:16:48.180Z,15.40
2019-05-22T14:19:07.717Z,15.20
2019-05-22T14:21:38.161Z,15.20
2019-05-22T14:24:10.099Z,15.20
2019-05-22T14:26:40.272Z,15.20
2019-05-22T14:29:20.102Z,15.20
2019-05-22T14:31:48.775Z,15.20
2019-05-22T14:34:21.136Z,15.00
2019-05-22T14:36:51.751Z,15.00
2019-05-22T14:39:21.224Z,14.90
2019-05-22T14:41:54.083Z,14.90
2019-05-22T14:44:22.646Z,14.90
2019-05-22T14:47:13.644Z,14.80
2019-05-22T14:49:31.399Z,14.80
2019-05-22T14:52:00.285Z,14.80
2019-05-22T14:54:32.893Z,15.00
2019-05-22T14:57:12.843Z,15.20
2019-05-22T15:00:14.798Z,15.40
2019-05-22T15:02:57.876Z,15.40
2019-05-22T15:05:46.222Z,15.30
2019-05-22T15:08:14.866Z,15.30
2019-05-22T15:10:45.870Z,15.20
2019-05-22T15:13:16.418Z,15.10
2019-05-22T15:15:47.615Z,15.00
2019-05-22T15:18:45.831Z,15.00
2019-05-22T15:21:22.777Z,15.10
2019-05-22T15:23:52.937Z,15.10
2019-05-22T15:26:38.425Z,15.00
2019-05-22T15:29:19.389Z,14.90
2019-05-22T15:31:49.871Z,14.80
2019-05-22T15:34:22.266Z,14.70
2019-05-22T15:37:04.708Z,14.60
2019-05-22T15:39:35.418Z,14.50
2019-05-22T15:42:06.511Z,14.40
2019-05-22T15:44:40.127Z,14.40
2019-05-22T15:47:08.712Z,14.30
2019-05-22T15:49:38.801Z,14.20
2019-05-22T15:52:09.038Z,14.10
2019-05-22T15:54:37.763Z,14.00
2019-05-22T15:57:09.908Z,13.90
2019-05-22T15:59:38.912Z,13.90
2019-05-22T16:02:09.093Z,13.90
2019-05-22T16:04:39.325Z,13.80
2019-05-22T16:07:19.274Z,13.80
2019-05-22T16:09:52.559Z,13.80
2019-05-22T16:12:28.554Z,13.80
2019-05-22T16:14:58.359Z,13.70
2019-05-22T16:17:28.159Z,13.60
2019-05-22T16:19:58.043Z,13.60
2019-05-22T16:22:26.993Z,13.60
2019-05-22T16:24:58.306Z,13.50
2019-05-22T16:27:28.218Z,13.50
2019-05-22T16:29:59.137Z,13.50
2019-05-22T16:32:30.044Z,13.50
2019-05-22T16:34:58.476Z,13.40
2019-05-22T16:37:27.732Z,13.40
2019-05-22T16:39:56.482Z,13.40
2019-05-22T16:42:25.591Z,13.30
2019-05-22T16:44:54.567Z,13.40
2019-05-22T16:47:23.306Z,13.40
2019-05-22T16:49:53.401Z,13.40
2019-05-22T16:52:22.641Z,13.40
2019-05-22T16:54:52.331Z,13.30
2019-05-22T16:57:21.641Z,13.30
2019-05-22T16:59:52.109Z,13.20
2019-05-22T17:02:21.250Z,13.20
2019-05-22T17:04:51.516Z,13.10
2019-05-22T17:07:23.172Z,13.10
2019-05-22T17:09:52.447Z,13.10
2019-05-22T17:12:23.376Z,13.10
2019-05-22T17:14:51.920Z,13.00
2019-05-22T17:17:20.503Z,13.00
2019-05-22T17:19:49.124Z,13.00
2019-05-22T17:22:19.028Z,12.90
2019-05-22T17:24:48.869Z,13.00
2019-05-22T17:27:17.923Z,13.00
2019-05-22T17:29:47.102Z,13.00
2019-05-22T17:32:15.916Z,12.90
2019-05-22T17:34:44.362Z,12.80
2019-05-22T17:37:16.350Z,12.80
2019-05-22T17:39:47.629Z,12.70
2019-05-22T17:42:16.537Z,12.70
2019-05-22T17:44:48.439Z,12.60
2019-05-22T17:47:19.426Z,12.60
2019-05-22T17:49:56.188Z,12.60
2019-05-22T17:52:26.383Z,12.60
2019-05-22T17:54:55.227Z,12.60
2019-05-22T17:57:24.648Z,12.60
2019-05-22T17:59:57.588Z,12.60
2019-05-22T18:02:29.494Z,12.60
2019-05-22T18:04:59.006Z,12.50
2019-05-22T18:07:33.885Z,12.50
2019-05-22T18:10:05.136Z,12.50
2019-05-22T18:12:35.613Z,12.50
2019-05-22T18:15:07.830Z,12.40
2019-05-22T18:17:38.027Z,12.40
2019-05-22T18:20:08.135Z,12.40
2019-05-22T18:22:42.544Z,12.40
2019-05-22T18:25:12.505Z,12.40
2019-05-22T18:27:40.824Z,12.40
2019-05-22T18:30:09.469Z,12.30
2019-05-22T18:32:43.344Z,12.30
2019-05-22T18:35:13.198Z,12.30
2019-05-22T18:37:43.803Z,12.30
2019-05-22T18:40:13.803Z,12.30
2019-05-22T18:42:41.879Z,12.30
2019-05-22T18:45:10.957Z,12.30
2019-05-22T18:47:40.281Z,12.20
2019-05-22T18:50:08.810Z,12.30
2019-05-22T18:52:41.212Z,12.30
2019-05-22T18:55:08.477Z,12.20
2019-05-22T18:57:37.416Z,12.20
2019-05-22T19:00:06.830Z,12.20
2019-05-22T19:02:35.540Z,12.10
2019-05-22T19:05:05.953Z,12.10
2019-05-22T19:07:34.842Z,12.10
2019-05-22T19:10:07.203Z,12.10
2019-05-22T19:12:36.218Z,12.00
2019-05-22T19:15:07.024Z,12.00
2019-05-22T19:17:36.423Z,12.00
2019-05-22T19:20:07.986Z,12.00
2019-05-22T19:22:37.234Z,12.00
2019-05-22T19:25:06.548Z,12.00
2019-05-22T19:27:35.808Z,12.00
2019-05-22T19:30:08.511Z,11.90
2019-05-22T19:32:37.588Z,11.90
2019-05-22T19:35:07.379Z,12.00
2019-05-22T19:37:36.056Z,11.90
2019-05-22T19:40:08.576Z,11.90
2019-05-22T19:42:37.162Z,11.90
2019-05-22T19:45:07.366Z,11.90
2019-05-22T19:47:40.659Z,11.90
2019-05-22T19:50:22.829Z,11.90
2019-05-22T19:52:46.808Z,11.90
2019-05-22T19:55:19.927Z,11.90
2019-05-22T19:57:52.972Z,11.90
2019-05-22T20:00:22.490Z,11.90
2019-05-22T20:03:19.608Z,11.90
2019-05-22T20:05:50.674Z,11.80
2019-05-22T20:08:22.732Z,11.80
2019-05-22T20:10:54.864Z,11.80
2019-05-22T20:13:24.031Z,11.80
2019-05-22T20:15:54.077Z,11.70
2019-05-22T20:18:22.834Z,11.70
2019-05-22T20:20:52.648Z,11.70
2019-05-22T20:23:35.450Z,11.70
2019-05-22T20:25:54.508Z,11.80
2019-05-22T20:28:24.261Z,11.70
2019-05-22T20:30:52.998Z,11.70
2019-05-22T20:33:21.434Z,11.70
2019-05-22T20:35:50.876Z,11.70
2019-05-22T20:38:21.190Z,11.70
2019-05-22T20:40:54.637Z,11.70
2019-05-22T20:43:24.267Z,11.70
2019-05-22T20:45:55.631Z,11.60
2019-05-22T20:48:26.568Z,11.70
2019-05-22T20:50:59.237Z,11.70
2019-05-22T20:53:28.866Z,11.60
2019-05-22T20:55:58.559Z,11.60
2019-05-22T20:58:31.002Z,11.60
2019-05-22T21:01:01.234Z,11.60
2019-05-22T21:03:31.882Z,11.60
2019-05-22T21:06:01.268Z,11.60
2019-05-22T21:08:30.865Z,11.50
2019-05-22T21:11:00.844Z,11.50
2019-05-22T21:13:30.581Z,11.60
2019-05-22T21:15:59.018Z,11.60
2019-05-22T21:18:29.813Z,11.50
2019-05-22T21:20:59.066Z,11.50
2019-05-22T21:23:29.158Z,11.50
2019-05-22T21:25:57.698Z,11.50
2019-05-22T21:28:26.588Z,11.50
2019-05-22T21:30:55.070Z,11.50
2019-05-22T21:33:24.251Z,11.50
2019-05-22T21:35:53.875Z,11.50
2019-05-22T21:38:22.956Z,11.40
2019-05-22T21:40:52.356Z,11.40
2019-05-22T21:43:21.222Z,11.50
2019-05-22T21:45:50.696Z,11.50
2019-05-22T21:48:19.546Z,11.50
2019-05-22T21:50:48.800Z,11.50
2019-05-22T21:53:18.755Z,11.50
2019-05-22T21:56:02.127Z,11.40
2019-05-22T21:58:18.635Z,11.40
2019-05-22T22:00:57.505Z,11.40
2019-05-22T22:03:44.022Z,11.40
2019-05-22T22:06:14.658Z,11.40
2019-05-22T22:08:43.071Z,11.40
2019-05-22T22:11:12.495Z,11.40
2019-05-22T22:13:41.607Z,11.30
2019-05-22T22:16:10.729Z,11.30
2019-05-22T22:18:40.114Z,11.30
2019-05-22T22:21:11.437Z,11.30
2019-05-22T22:23:40.138Z,11.40
2019-05-22T22:26:24.642Z,11.30
2019-05-22T22:28:40.264Z,11.40
2019-05-22T22:31:09.613Z,11.30
2019-05-22T22:33:38.010Z,11.30
2019-05-22T22:36:08.134Z,11.30
2019-05-22T22:38:38.168Z,11.30
2019-05-22T22:41:06.975Z,11.30
2019-05-22T22:43:37.192Z,11.30
2019-05-22T22:46:23.815Z,11.30
2019-05-22T22:48:53.786Z,11.30
2019-05-22T22:51:22.512Z,11.30
2019-05-22T22:53:51.928Z,11.30
2019-05-22T22:56:21.198Z,11.30
2019-05-22T22:58:49.707Z,11.30
2019-05-22T23:01:25.644Z,11.30
2019-05-22T23:03:54.716Z,11.30
2019-05-22T23:06:23.358Z,11.20
2019-05-22T23:08:51.903Z,11.20
2019-05-22T23:11:20.827Z,11.20
2019-05-22T23:13:49.648Z,11.20
2019-05-22T23:16:19.073Z,11.20
2019-05-22T23:19:13.219Z,11.20
2019-05-22T23:21:40.735Z,11.10
2019-05-22T23:24:09.796Z,11.10
2019-05-22T23:26:38.779Z,11.10
2019-05-22T23:29:08.568Z,11.10
2019-05-22T23:31:38.441Z,11.10
2019-05-22T23:34:08.136Z,11.10
2019-05-22T23:36:36.650Z,11.10
2019-05-22T23:39:09.932Z,11.10
2019-05-22T23:41:40.089Z,11.10
2019-05-22T23:44:08.838Z,11.10
2019-05-22T23:46:38.297Z,11.10
2019-05-22T23:49:08.004Z,11.10
2019-05-22T23:51:36.399Z,11.10
2019-05-22T23:54:05.113Z,11.10
2019-05-22T23:56:34.933Z,11.00
2019-05-22T23:59:03.916Z,11.10
